ADDS METAR Data INFO
IDs: Format: Raw Decoded Include TAF

Data at: 1415 UTC 12 Dec 2017

KDCU 121353Z AUTO 32011G21KT 10SM OVC044 07/01 A3003 RMK AO2 SLP168 T00720006 $
KDCU 121253Z AUTO 30007KT 10SM OVC048 07/01 A3001 RMK AO2 SLP163 T00670006 $
KDCU 121153Z AUTO 32007KT 10SM FEW055 06/M01 A2998 RMK AO2 SLP150 T00561006 10094 20056 53013 $
KDCU 121053Z AUTO 31007KT 10SM CLR 07/M01 A2996 RMK AO2 SLP144 T00671011 $
KDCU 120953Z AUTO 31006KT 10SM CLR 07/M01 A2995 RMK AO2 SLP140 T00671011 $
KDCU 120853Z AUTO 30004KT 10SM CLR 07/00 A2994 RMK AO2 SLP136 T00720000 53002 $
KDCU 120753Z AUTO 30005KT 10SM CLR 08/01 A2994 RMK AO2 SLP135 T00830006 $
KDCU 120653Z AUTO 29006KT 10SM CLR 09/02 A2993 RMK AO2 SLP132 T00890017 $
KDCU 120553Z AUTO 26004KT 10SM CLR 09/02 A2993 RMK AO2 SLP134 T00940017 10106 20078 401671044 56005 $
KDCU 120453Z AUTO 30003KT 10SM CLR 09/01 A2993 RMK AO2 SLP135 T00940011 $
KDCU 120353Z AUTO 21005KT 10SM CLR 09/01 A2994 RMK AO2 SLP137 T00940011 $
KDCU 120253Z AUTO 20006KT 10SM CLR 09/01 A2995 RMK AO2 SLP141 T00890011 55005 $
KDCU 120153Z AUTO 19006KT 10SM CLR 08/01 A2994 RMK AO2 SLP142 T00830011 $
KDCU 120053Z AUTO 18009KT 10SM CLR 09/01 A2995 RMK AO2 SLP144 T00890011 $
KDCU 112353Z AUTO 19008KT 10SM CLR 09/01 A2996 RMK AO2 SLP148 T00940006 10167 20078 58014 $
KDCU 112253Z AUTO 21007KT 10SM CLR 13/M01 A2998 RMK AO2 SLP154 T01331006 $
KDCU 112153Z AUTO 21009KT 10SM CLR 16/M01 A2999 RMK AO2 SLP156 T01561006 $
KDCU 112053Z AUTO 22010KT 10SM CLR 16/M01 A3000 RMK AO2 SLP161 T01611006 56030 $
KDCU 111953Z AUTO 27005KT 10SM CLR 16/00 A3002 RMK AO2 SLP168 T01560000 $
KDCU 111853Z AUTO 21006KT 10SM CLR 14/00 A3006 RMK AO2 SLP178 T01440000 $
KDCU 111753Z AUTO 19006KT 10SM CLR 12/01 A3010 RMK AO2 SLP192 T01220011 10122 21044 58028 $
KDCU 111653Z AUTO 16004KT 10SM CLR 10/00 A3014 RMK AO2 SLP208 T01000000 $
KDCU 111553Z AUTO VRB04KT 10SM CLR 08/00 A3017 RMK AO2 SLP217 T00780000 $
KDCU 111453Z AUTO 20006KT 10SM CLR 06/M01 A3018 RMK AO2 SLP222 T00561006 56004 $
KDCU 111353Z AUTO 00000KT 10SM CLR 01/M01 A3018 RMK AO2 SLP223 T00061006 $
KDCU 111253Z AUTO 00000KT 10SM CLR M03/M03 A3018 RMK AO2 SLP224 T10331033 $
KDCU 111153Z AUTO 00000KT 10SM CLR M02/M03 A3019 RMK AO2 SLP227 T10221028 10017 21039 55002 $
KDCU 111053Z AUTO 00000KT 10SM CLR M02/M03 A3019 RMK AO2 SLP225 T10221028 $
KDCU 110953Z AUTO 13003KT 10SM CLR M01/M03 A3018 RMK AO2 SLP223 T10111028 $
KDCU 110853Z AUTO 00000KT 10SM CLR M02/M03 A3020 RMK AO2 SLP228 T10171033 55007 $
KDCU 110753Z AUTO 14003KT 10SM CLR M01/M03 A3019 RMK AO2 SLP227 T10111028 $
KDCU 110653Z AUTO 15004KT 10SM CLR 01/M03 A3020 RMK AO2 SLP228 T00111028 $
KDCU 110553Z AUTO 16006KT 10SM CLR 02/M03 A3022 RMK AO2 SLP235 T00171028 10072 20017 401001072 58008 $
KDCU 110453Z AUTO 16005KT 10SM CLR 02/M03 A3024 RMK AO2 SLP242 T00171028 $
KDCU 110353Z AUTO 17004KT 10SM CLR 03/M03 A3024 RMK AO2 SLP243 T00281033 $
KDCU 110253Z AUTO 18003KT 10SM CLR 03/M04 A3024 RMK AO2 SLP244 T00281039 51015 $